Weather reports worldwide

Advertisment
Somosierra, Spain (8145): temperature & dewpoint: 26.06.2020 08:00:00 - 02.07.2020 08:00:00 (CEST)Somosierra, Spain (8145): wind speed & gusts: 26.06.2020 08:00:00 - 02.07.2020 08:00:00 (CEST)Somosierra, Spain (8145): wind direction: 26.06.2020 08:00:00 - 02.07.2020 08:00:00 (CEST)Somosierra, Spain (8145): precipitation: 26.06.2020 08:00:00 - 02.07.2020 08:00:00 (CEST)
Date & Time tt [°C] td [°C] ff [km/h] ff [kn] fx [km/h] fx [kn] dd rr [mm]
02.07.2020 08:00:00 - - - - - - - -
02.07.2020 07:00:00 11,5 8,9 5 3 10 6 N 0,0
02.07.2020 06:00:00 12,7 9,0 3 2 6 4 NNE 0,0
02.07.2020 05:00:00 13,7 9,0 2 1 19 10 NNE 0,0
02.07.2020 04:00:00 15,6 9,5 9 5 21 12 NNE 0,0
02.07.2020 03:00:00 14,7 8,6 4 2 11 6 N 0,0
02.07.2020 02:00:00 16,3 8,5 5 3 16 9 NW -
02.07.2020 01:00:00 17,4 8,0 6 4 19 10 NNW 0,0
02.07.2020 00:00:00 18,9 7,0 11 6 20 11 N 0,0
01.07.2020 23:00:00 19,0 6,8 9 5 23 12 N 0,0
01.07.2020 22:00:00 19,8 6,5 8 5 17 9 N 0,0
01.07.2020 21:00:00 23,1 8,4 5 3 21 12 NNW 0,0
01.07.2020 20:00:00 25,4 9,7 7 4 28 15 W -
01.07.2020 19:00:00 26,0 9,8 11 6 25 14 WSW 0,0
01.07.2020 18:00:00 - - 7 4 29 16 W 0,0
01.07.2020 17:00:00 27,2 12,0 10 6 31 17 W 0,0
01.07.2020 16:00:00 27,4 13,7 12 6 30 16 W 0,0
01.07.2020 15:00:00 26,4 14,5 9 5 29 16 W 0,0
01.07.2020 14:00:00 24,9 13,8 5 3 19 11 WNW -
01.07.2020 13:00:00 23,9 14,9 6 4 20 11 NW 0,0
01.07.2020 12:00:00 24,2 15,7 4 2 17 9 NW 0,0
01.07.2020 11:00:00 23,5 15,8 3 2 15 8 NNE 0,0
01.07.2020 10:00:00 20,7 13,9 5 3 13 7 N 0,0
01.07.2020 09:00:00 17,6 12,5 4 2 11 6 N 0,0
01.07.2020 08:00:00 15,4 9,3 2 1 8 5 NE -
01.07.2020 07:00:00 15,7 8,0 3 2 10 5 SSE 0,0
01.07.2020 06:00:00 15,9 7,2 3 2 8 4 SSE 0,0
01.07.2020 05:00:00 16,0 6,7 2 1 11 6 SSE 0,0
01.07.2020 04:00:00 18,5 7,6 8 4 11 6 W 0,0
01.07.2020 03:00:00 17,4 7,2 2 1 9 5 E 0,0
01.07.2020 02:00:00 20,0 8,0 1 0 11 6 SE -
01.07.2020 01:00:00 20,1 8,1 1 1 11 6 NE 0,0
01.07.2020 00:00:00 20,8 8,8 1 0 16 9 N 0,0
30.06.2020 23:00:00 21,0 9,0 1 1 10 6 N 0,0
30.06.2020 22:00:00 20,6 9,8 4 2 16 9 WNW 0,0
30.06.2020 21:00:00 22,6 11,0 3 2 19 10 N 0,0
30.06.2020 20:00:00 25,0 13,5 3 2 12 6 N -
30.06.2020 19:00:00 27,5 11,9 9 5 22 12 SSW 0,0
30.06.2020 18:00:00 26,4 11,7 3 1 27 15 SW 0,0
30.06.2020 17:00:00 28,3 12,2 14 7 31 17 SSW 0,0
30.06.2020 16:00:00 28,1 14,3 12 7 26 14 S 0,2
30.06.2020 15:00:00 24,3 14,7 1 1 23 12 SE 0,0
30.06.2020 14:00:00 27,3 13,3 11 6 22 12 S -
30.06.2020 13:00:00 26,7 13,4 9 5 17 9 S 0,0
30.06.2020 12:00:00 25,6 14,4 8 5 15 8 S 0,0
30.06.2020 11:00:00 23,4 14,4 8 4 17 9 S 0,0
30.06.2020 10:00:00 21,1 12,8 10 5 16 9 S 0,0
30.06.2020 09:00:00 18,7 12,2 8 5 11 6 S 0,0
30.06.2020 08:00:00 16,8 10,6 7 4 10 5 S -
30.06.2020 07:00:00 16,4 9,6 5 3 8 4 S 0,0
30.06.2020 06:00:00 16,1 9,3 4 2 9 5 SSE 0,0
30.06.2020 05:00:00 16,5 9,4 5 3 7 4 S 0,0
30.06.2020 04:00:00 16,5 9,0 4 2 7 4 N 0,0
30.06.2020 03:00:00 16,6 9,1 3 1 8 4 N 0,0
30.06.2020 02:00:00 16,6 9,5 3 2 7 4 N -
30.06.2020 01:00:00 16,6 10,7 4 2 10 5 N 0,0
30.06.2020 00:00:00 17,2 11,5 5 3 19 10 NNE 0,0
29.06.2020 23:00:00 18,2 10,1 5 3 18 10 N 0,0
29.06.2020 22:00:00 20,3 8,6 2 1 44 24 N 0,0
29.06.2020 21:00:00 24,1 10,8 4 2 10 5 NNW 0,0
29.06.2020 20:00:00 27,4 11,8 5 3 15 8 NNW -
29.06.2020 19:00:00 28,5 12,4 4 2 18 10 WNW 0,0
29.06.2020 18:00:00 27,5 12,3 6 4 15 8 NNW 0,0
29.06.2020 17:00:00 24,1 12,7 5 3 16 8 SSE 0,0
29.06.2020 16:00:00 25,3 14,1 5 3 11 6 SE 0,0
29.06.2020 15:00:00 26,7 15,4 5 3 14 7 N 0,0
29.06.2020 14:00:00 25,3 12,9 4 2 22 12 SSE -
29.06.2020 13:00:00 25,5 13,7 6 3 21 12 S 0,0
29.06.2020 12:00:00 24,4 13,0 8 4 19 10 S 0,0
29.06.2020 11:00:00 22,6 12,5 8 4 13 7 S 0,0
29.06.2020 10:00:00 19,6 14,6 3 2 10 5 N 0,0
29.06.2020 09:00:00 16,5 14,0 4 2 11 6 N 0,0
29.06.2020 08:00:00 13,8 12,4 4 2 7 4 N -
29.06.2020 07:00:00 13,7 12,3 2 1 8 4 N 0,0
29.06.2020 06:00:00 13,8 12,0 4 2 11 6 N 0,0
29.06.2020 05:00:00 14,8 11,9 3 1 15 8 N 0,0
29.06.2020 04:00:00 16,1 12,5 5 3 16 9 NNE 0,0
29.06.2020 03:00:00 16,8 11,9 2 1 23 13 N 0,0
29.06.2020 02:00:00 16,3 10,8 2 1 15 8 N -
29.06.2020 01:00:00 16,4 9,1 3 1 9 5 N 0,0
29.06.2020 00:00:00 16,8 8,8 3 2 6 3 N 0,0
28.06.2020 23:00:00 17,7 9,1 3 2 9 5 N 0,0
28.06.2020 22:00:00 19,5 9,1 1 1 12 7 NW 0,0
28.06.2020 21:00:00 23,7 10,4 3 1 12 6 NNW 0,0
28.06.2020 20:00:00 25,5 10,9 6 3 18 10 NW -
28.06.2020 19:00:00 24,9 11,5 7 4 20 11 W 0,0
28.06.2020 18:00:00 26,4 13,9 7 4 17 9 WSW 0,0
28.06.2020 17:00:00 24,1 13,6 3 2 16 9 SE 0,0
28.06.2020 16:00:00 24,7 14,2 2 1 16 9 NNW 0,0
28.06.2020 15:00:00 22,7 13,5 6 4 21 11 N 0,0
28.06.2020 14:00:00 23,0 15,3 4 2 19 10 NNW -
28.06.2020 13:00:00 22,4 14,3 7 4 14 8 N 0,0
28.06.2020 12:00:00 21,1 14,5 7 4 16 9 N 0,0
28.06.2020 11:00:00 18,7 14,0 5 3 15 8 N 0,0
28.06.2020 10:00:00 16,7 13,6 7 4 14 8 N 0,0
28.06.2020 09:00:00 14,1 13,2 8 5 13 7 N 0,0
28.06.2020 08:00:00 11,8 11,5 4 2 9 5 N -
28.06.2020 07:00:00 11,2 10,7 5 3 9 5 N 0,0
28.06.2020 06:00:00 11,7 11,1 3 2 8 4 N 0,0
28.06.2020 05:00:00 12,1 11,3 3 1 11 6 N 0,0
28.06.2020 04:00:00 13,4 11,8 2 1 14 8 N 0,0
28.06.2020 03:00:00 14,0 11,9 2 1 12 6 NNW 0,0
28.06.2020 02:00:00 14,0 11,0 2 1 14 7 N -
28.06.2020 01:00:00 14,2 10,8 4 2 11 6 N 0,0
28.06.2020 00:00:00 15,2 11,0 2 1 12 6 N 0,0
27.06.2020 23:00:00 16,3 10,4 6 4 19 10 N 0,0
27.06.2020 22:00:00 17,4 9,6 5 3 14 7 N 0,0
27.06.2020 21:00:00 21,4 10,6 4 2 17 9 NNW 0,0
27.06.2020 20:00:00 23,5 11,5 6 3 23 13 NW -
27.06.2020 19:00:00 24,2 12,2 6 3 19 11 NNW 0,0
27.06.2020 18:00:00 25,2 13,1 6 3 21 11 NW 0,0
27.06.2020 17:00:00 25,0 13,5 4 2 - - NW -
27.06.2020 16:00:00 23,9 13,7 8 4 23 12 NW 0,0
27.06.2020 15:00:00 23,6 15,4 5 3 16 8 N 0,0
27.06.2020 14:00:00 22,8 15,1 6 3 18 10 N -
27.06.2020 13:00:00 20,9 14,1 5 3 18 10 N 0,0
27.06.2020 12:00:00 18,9 13,7 7 4 17 9 N 0,0
27.06.2020 11:00:00 17,9 14,2 5 3 14 8 N 0,0
27.06.2020 10:00:00 15,0 12,7 6 3 16 8 N 0,0
27.06.2020 09:00:00 13,2 11,8 5 3 12 7 N 0,0
27.06.2020 08:00:00 11,7 10,8 4 2 12 6 NNE -
27.06.2020 07:00:00 12,3 11,0 1 0 26 14 NW 0,0
27.06.2020 06:00:00 12,6 11,2 13 7 29 16 ENE 0,0
27.06.2020 05:00:00 12,9 10,8 3 2 16 9 NNW 0,0
27.06.2020 04:00:00 13,2 10,6 3 2 18 10 NW 0,0
27.06.2020 03:00:00 13,6 9,8 1 1 16 8 NW 0,0
27.06.2020 02:00:00 12,9 6,7 2 1 13 7 N -
27.06.2020 01:00:00 12,7 5,9 5 3 13 7 N 0,0
27.06.2020 00:00:00 13,0 4,7 7 4 20 11 N 0,0
26.06.2020 23:00:00 15,3 5,0 6 4 17 9 N 0,0
26.06.2020 22:00:00 15,2 5,7 5 3 18 10 N 0,0
26.06.2020 21:00:00 19,3 7,7 5 3 21 11 NNW 0,0
26.06.2020 20:00:00 19,5 9,1 5 3 16 9 NNW -
26.06.2020 19:00:00 20,7 9,3 6 3 24 13 WNW 0,0
26.06.2020 18:00:00 22,0 5,9 9 5 29 16 SSW 0,0
26.06.2020 17:00:00 23,3 7,8 14 8 32 17 S 0,0
26.06.2020 16:00:00 22,4 9,2 11 6 32 17 SSW 0,0
26.06.2020 15:00:00 22,0 10,2 14 8 29 16 S 0,0
26.06.2020 14:00:00 21,1 11,2 16 9 29 15 S -
26.06.2020 13:00:00 21,2 12,4 12 6 46 25 S 0,0
26.06.2020 12:00:00 19,6 13,3 9 5 24 13 S 0,0
26.06.2020 11:00:00 18,7 13,3 14 7 24 13 SSW 0,0
26.06.2020 10:00:00 18,5 13,1 12 6 19 10 S 0,0
26.06.2020 09:00:00 16,3 12,8 9 5 17 9 S 0,0
26.06.2020 08:00:00 14,1 11,4 9 5 14 8 S -

tt = temperature
td = dewpoint
ff = wind speed
fx = gusts
dd = wind direction
rr = precipitation

Next stations